Etusivu
METAR-TAF:

METAR-TAF

Lentoasemat :

Mihail Kogălniceanun lentoasema

Constanţa, Romania

Leveyspiiri: 44-20N, Pituuspiiri: 028-26E, korkeus merenpinnasta: 97 m

Tämänhetkinen sää

Tämä raportti tehtiin 34 minuuttia sitten, kello 06.00 UTC
Tuuli 14 kn koillisesta
Lämpötila 4°C
Kosteus 56%
Ilmanpaine 1017 hPa
Näkyvyys 10 km tai enemmän
ei pilviä alle 1500 m:ssä eikä cumulonimbus-pilviä

METAR: LRCK 020600Z 04014KT CAVOK 04/M04 Q1017 NOSIG

Aika: 09:34 (06:34 UTC)

Sääennuste

Tämä raportti tehtiin 1 tunti ja 34 minuuttia sitten, kello 05.00 UTC
Ennuste voimassa 02. päivästä klo 06 UTC - 03. päivään klo 06 UTC
Tuuli 10 kn pohjoisesta
Näkyvyys 10 km tai enemmän
ei pilviä alle 1500 m:ssä eikä cumulonimbus-pilviä
Tulossa
02. päivästä klo 07 UTC - 02. päivään klo 09 UTC
Tuuli 12 kn idästä
Tulossa
02. päivästä klo 16 UTC - 02. päivään klo 18 UTC
Tuuli 4 kn eri suunnista

TAF: LRCK 020500Z 0206/0306 01010KT CAVOK BECMG 0207/0209 08012KT BECMG 0216/0218 VRB04KT

Säähavainnot ja -ennusteet yli 4000 lentoasemalta (METAR- ja TAF-raportit).

Käytössä olevat sääasemat on merkitty karttaan keltaisilla ja punaisilla pisteillä.

Aseta hiiri pisteen päälle nähdäksesi sääaseman nimen.

Klikkaa sitten nähdäksesi säähavainnot ja -ennusteet.

Kartan vaihtaminen: klikkaa mustalla rastilla varustettuja vihreitä pisteitä, niin voit zoomata sisään; viivalla varustettua vihreää pistettä, niin voit zoomata ulos tai vihreitä nuolia, niin pääset viereisille kartoille.


METAR-TAF: